Time;durP1;ratioP1;P1;durP2;ratioP2;P2;SDS_P1;SDS_P2;PMS_P1;PMS_P2;Temp;Humidity;BMP_temperature;BMP_pressure;BME280_temperature;BME280_humidity;BME280_pressure;Samples;Min_cycle;Max_cycle;Signal;HPM_P1;HPM_P2
2021/05/26 00:00:14;;;;;;;25.30;14.48;;;8.90;99.90;;;;;;4163867;28;20025;-73
2021/05/26 00:02:15;;;;;;;20.60;13.15;;;8.90;99.90;;;;;;4163841;28;20387;-73
2021/05/26 00:04:15;;;;;;;20.25;11.80;;;8.80;99.90;;;;;;4163632;28;20100;-73
2021/05/26 00:06:16;;;;;;;20.70;13.13;;;8.80;99.90;;;;;;4159642;28;20025;-73
2021/05/26 00:08:34;;;;;;;21.50;10.48;;;8.80;99.90;;;;;;4153346;28;20143;-73
2021/05/26 00:10:35;;;;;;;19.40;11.40;;;8.80;99.90;;;;;;4158508;28;20021;-73
2021/05/26 00:12:35;;;;;;;19.52;11.55;;;8.70;99.90;;;;;;4155579;28;20445;-72
2021/05/26 00:14:36;;;;;;;14.68;8.98;;;8.70;99.90;;;;;;4153384;28;20475;-72
2021/05/26 00:16:38;;;;;;;12.25;8.35;;;8.70;99.90;;;;;;4156809;28;20022;-72
2021/05/26 00:18:39;;;;;;;12.98;7.57;;;8.70;99.90;;;;;;4155228;28;20083;-72
2021/05/26 00:20:41;;;;;;;12.68;6.47;;;8.70;99.90;;;;;;4155832;28;20030;-73
2021/05/26 00:22:41;;;;;;;7.35;5.90;;;8.80;99.90;;;;;;4154408;28;20645;-73
2021/05/26 00:24:42;;;;;;;16.90;6.72;;;8.80;99.90;;;;;;4155692;28;20068;-73
2021/05/26 00:26:45;;;;;;;7.72;6.10;;;8.80;99.90;;;;;;4159051;28;20493;-73
2021/05/26 00:28:47;;;;;;;11.02;5.55;;;8.80;99.90;;;;;;4158931;28;20553;-73
2021/05/26 00:30:52;;;;;;;10.20;6.32;;;8.70;99.90;;;;;;4154793;28;20038;-73
2021/05/26 00:32:54;;;;;;;10.48;5.97;;;8.70;99.90;;;;;;4162107;28;20036;-72
2021/05/26 00:34:55;;;;;;;12.70;6.05;;;8.60;99.90;;;;;;4162299;28;20038;-72
2021/05/26 00:36:55;;;;;;;10.27;6.05;;;8.60;99.90;;;;;;4162271;28;20037;-73
2021/05/26 00:38:56;;;;;;;9.18;4.90;;;8.70;99.90;;;;;;4160671;28;20038;-72
2021/05/26 00:40:57;;;;;;;11.20;5.07;;;8.70;99.90;;;;;;4159739;28;20033;-73
2021/05/26 00:42:57;;;;;;;7.95;4.93;;;8.70;99.90;;;;;;4151800;28;20034;-72
2021/05/26 00:44:58;;;;;;;7.22;4.45;;;8.70;99.90;;;;;;4160773;28;20056;-73
2021/05/26 00:46:59;;;;;;;9.13;4.53;;;8.60;99.90;;;;;;4149364;28;20072;-72
2021/05/26 00:48:59;;;;;;;8.13;3.63;;;8.60;99.90;;;;;;4149239;28;20018;-72
2021/05/26 00:51:00;;;;;;;9.32;3.70;;;8.70;99.90;;;;;;4148750;28;20034;-72
2021/05/26 00:53:03;;;;;;;8.02;4.03;;;8.80;99.90;;;;;;4148808;28;20128;-72
2021/05/26 00:55:05;;;;;;;4.22;3.50;;;8.80;99.90;;;;;;4150539;28;20062;-73
2021/05/26 00:57:06;;;;;;;5.35;3.40;;;8.90;99.90;;;;;;4155696;28;20057;-73
2021/05/26 00:59:07;;;;;;;5.20;3.50;;;8.90;99.90;;;;;;4160686;28;20037;-72
2021/05/26 01:01:09;;;;;;;6.00;4.47;;;8.90;99.90;;;;;;4161793;28;20396;-72
2021/05/26 01:03:11;;;;;;;5.05;3.83;;;8.90;99.90;;;;;;4161564;28;20523;-73
2021/05/26 01:05:14;;;;;;;6.80;4.72;;;8.80;99.90;;;;;;4161458;28;20053;-73
2021/05/26 01:07:15;;;;;;;9.60;4.97;;;8.70;99.90;;;;;;4161001;28;20037;-73
2021/05/26 01:09:15;;;;;;;7.63;5.28;;;8.60;99.90;;;;;;4155175;28;20030;-73
2021/05/26 01:11:16;;;;;;;10.93;7.32;;;8.60;99.90;;;;;;4145450;28;20448;-73
2021/05/26 01:13:19;;;;;;;6.93;5.50;;;8.60;99.90;;;;;;4146259;28;20121;-74
2021/05/26 01:15:20;;;;;;;7.78;5.53;;;8.60;99.90;;;;;;4147319;28;20137;-73
2021/05/26 01:17:21;;;;;;;10.65;6.72;;;8.50;99.90;;;;;;4162787;28;20392;-73
2021/05/26 01:19:22;;;;;;;6.43;4.47;;;8.50;99.90;;;;;;4157057;28;20026;-74
2021/05/26 01:21:22;;;;;;;8.55;5.40;;;8.50;99.90;;;;;;4146968;28;20397;-73
2021/05/26 01:23:23;;;;;;;12.82;6.28;;;8.50;99.90;;;;;;4157831;28;20021;-72
2021/05/26 01:25:24;;;;;;;8.40;5.47;;;8.40;99.90;;;;;;4160479;28;20029;-73
2021/05/26 01:27:25;;;;;;;7.80;5.88;;;8.50;99.90;;;;;;4162443;28;20042;-73
2021/05/26 01:29:25;;;;;;;6.63;4.03;;;8.40;99.90;;;;;;4162942;28;20032;-73
2021/05/26 01:31:26;;;;;;;6.55;4.78;;;8.40;99.90;;;;;;4159250;28;20036;-73
2021/05/26 01:33:30;;;;;;;6.68;4.78;;;8.40;99.90;;;;;;4162427;28;20037;-73
2021/05/26 01:35:30;;;;;;;8.43;4.43;;;8.40;99.90;;;;;;4162682;28;20495;-73
2021/05/26 01:37:31;;;;;;;9.40;3.92;;;8.50;99.90;;;;;;4162622;28;20112;-73
2021/05/26 01:39:31;;;;;;;9.23;4.28;;;8.60;99.90;;;;;;4162551;28;20144;-73
2021/05/26 01:41:32;;;;;;;5.63;4.30;;;8.50;99.90;;;;;;4162052;28;20030;-73
2021/05/26 01:43:34;;;;;;;4.68;3.35;;;8.50;99.90;;;;;;4162790;28;20108;-73
2021/05/26 01:45:36;;;;;;;6.65;4.90;;;8.50;99.90;;;;;;4158690;28;20041;-73
2021/05/26 01:47:36;;;;;;;6.50;4.45;;;8.40;99.90;;;;;;4161696;28;20497;-73
2021/05/26 01:49:37;;;;;;;7.05;4.35;;;8.40;99.90;;;;;;4158372;28;20108;-73
2021/05/26 01:51:38;;;;;;;7.57;5.47;;;8.30;99.90;;;;;;4162193;28;20029;-73
2021/05/26 01:53:38;;;;;;;9.48;6.18;;;8.30;99.90;;;;;;4162168;28;20401;-73
2021/05/26 01:55:40;;;;;;;6.40;5.45;;;8.30;99.90;;;;;;4160400;28;20440;-73
2021/05/26 01:57:43;;;;;;;6.90;5.10;;;8.30;99.90;;;;;;4158388;28;20042;-72
2021/05/26 01:59:44;;;;;;;9.60;5.50;;;8.30;99.90;;;;;;4160841;28;20022;-73
2021/05/26 02:01:45;;;;;;;7.20;4.65;;;8.30;99.90;;;;;;4160203;28;20052;-73
2021/05/26 02:03:45;;;;;;;9.77;4.72;;;8.30;99.90;;;;;;4159232;28;20058;-73
2021/05/26 02:05:46;;;;;;;5.78;4.43;;;8.40;99.90;;;;;;4161631;28;20037;-73
2021/05/26 02:07:48;;;;;;;6.85;5.03;;;8.50;99.90;;;;;;4159873;28;20018;-73
2021/05/26 02:09:48;;;;;;;7.65;5.78;;;8.40;99.90;;;;;;4159787;28;20046;-73
2021/05/26 02:14:09;;;;;;;9.77;5.85;;;8.30;99.90;;;;;;4164292;28;20024;-72
2021/05/26 02:16:10;;;;;;;18.20;6.45;;;8.30;99.90;;;;;;4165264;28;20025;-73
2021/05/26 02:18:10;;;;;;;7.90;6.30;;;8.30;99.90;;;;;;4165054;28;20021;-73
2021/05/26 02:20:11;;;;;;;11.27;5.65;;;8.30;99.90;;;;;;4162395;28;20040;-73
2021/05/26 02:22:12;;;;;;;10.40;6.05;;;8.30;99.90;;;;;;4165356;28;20035;-73
2021/05/26 02:24:13;;;;;;;7.70;6.50;;;8.30;99.90;;;;;;4164651;28;20109;-73
2021/05/26 02:26:14;;;;;;;7.78;6.25;;;8.30;99.90;;;;;;4165049;28;20037;-73
2021/05/26 02:28:15;;;;;;;10.77;5.38;;;8.20;99.90;;;;;;4164772;28;20116;-73
2021/05/26 02:30:16;;;;;;;5.80;4.63;;;8.30;99.90;;;;;;4165020;28;20029;-73
2021/05/26 02:32:17;;;;;;;5.18;3.80;;;8.40;99.90;;;;;;4164368;28;20461;-73
2021/05/26 02:34:17;;;;;;;7.20;4.30;;;8.40;99.90;;;;;;4164877;28;20075;-73
2021/05/26 02:36:18;;;;;;;10.15;4.68;;;8.30;99.90;;;;;;4165104;28;20050;-73
2021/05/26 02:38:19;;;;;;;7.75;4.50;;;8.30;99.90;;;;;;4176785;28;20115;-72
2021/05/26 02:40:20;;;;;;;7.05;4.35;;;8.20;99.90;;;;;;4164713;28;20704;-73
2021/05/26 02:42:21;;;;;;;5.03;4.22;;;8.20;99.90;;;;;;4163899;28;20045;-73
2021/05/26 02:44:22;;;;;;;7.60;4.05;;;8.20;99.90;;;;;;4164625;28;20125;-74
2021/05/26 02:46:23;;;;;;;4.53;3.55;;;8.20;99.90;;;;;;4162226;28;20040;-73
2021/05/26 02:48:24;;;;;;;9.73;4.53;;;8.30;99.90;;;;;;4157022;28;20124;-73
2021/05/26 02:50:24;;;;;;;6.00;4.03;;;8.20;99.90;;;;;;4164761;28;20486;-73
2021/05/26 02:52:26;;;;;;;7.65;4.40;;;8.10;99.90;;;;;;4155393;28;20366;-74
2021/05/26 02:54:27;;;;;;;7.88;4.47;;;8.20;99.90;;;;;;4155122;28;20144;-73
2021/05/26 02:56:28;;;;;;;9.70;4.85;;;8.10;99.90;;;;;;4155167;28;20041;-73
2021/05/26 02:58:28;;;;;;;5.30;4.80;;;8.10;99.90;;;;;;4152072;28;20524;-74
2021/05/26 03:00:29;;;;;;;8.30;4.53;;;8.10;99.90;;;;;;4158346;28;20045;-73
2021/05/26 03:02:30;;;;;;;7.13;5.57;;;8.20;99.90;;;;;;4156850;28;20350;-73
2021/05/26 03:04:30;;;;;;;8.30;5.05;;;8.30;99.90;;;;;;4162928;28;20583;-73
2021/05/26 03:06:32;;;;;;;6.55;5.00;;;8.20;99.90;;;;;;4155510;28;20053;-73
2021/05/26 03:08:32;;;;;;;6.50;4.97;;;8.20;99.90;;;;;;4155404;28;20029;-73
2021/05/26 03:10:33;;;;;;;10.20;6.20;;;8.30;99.90;;;;;;4164753;28;20037;-73
2021/05/26 03:12:34;;;;;;;7.28;5.57;;;8.20;99.90;;;;;;4173193;28;20036;-73
2021/05/26 03:14:35;;;;;;;13.23;5.85;;;8.20;99.90;;;;;;4161992;28;20029;-73
2021/05/26 03:16:37;;;;;;;7.30;6.15;;;8.20;99.90;;;;;;4162035;28;20033;-73
2021/05/26 03:18:38;;;;;;;12.85;7.18;;;8.20;99.90;;;;;;4152810;28;20419;-73
2021/05/26 03:20:39;;;;;;;14.63;8.27;;;8.30;99.90;;;;;;4163301;28;20041;-73
2021/05/26 03:22:40;;;;;;;13.77;8.82;;;8.30;99.90;;;;;;4164790;28;20068;-73
2021/05/26 03:24:41;;;;;;;21.08;10.48;;;8.30;99.90;;;;;;4164640;28;20025;-73
2021/05/26 03:26:42;;;;;;;24.77;12.80;;;8.30;99.90;;;;;;4164213;28;20034;-73
2021/05/26 03:28:42;;;;;;;19.25;13.38;;;8.30;99.90;;;;;;4164310;28;20114;-72
2021/05/26 03:30:44;;;;;;;29.40;15.43;;;8.40;99.90;;;;;;4164335;28;20030;-72
2021/05/26 03:32:46;;;;;;;26.23;16.05;;;8.40;99.90;;;;;;4163734;28;20087;-72
2021/05/26 03:34:48;;;;;;;31.50;17.95;;;8.40;99.90;;;;;;4163135;28;20041;-72
2021/05/26 03:36:48;;;;;;;34.25;17.25;;;8.50;99.90;;;;;;4164458;28;20056;-72
2021/05/26 03:38:49;;;;;;;34.55;17.58;;;8.60;99.90;;;;;;4163788;28;20038;-72
2021/05/26 03:40:49;;;;;;;30.50;17.77;;;8.70;99.90;;;;;;4163860;28;20084;-72
2021/05/26 03:42:50;;;;;;;40.90;18.42;;;8.80;99.90;;;;;;4163880;28;20357;-72
2021/05/26 03:44:52;;;;;;;32.88;18.80;;;8.70;99.90;;;;;;4163985;28;20037;-72
2021/05/26 03:46:53;;;;;;;37.55;19.40;;;8.70;99.90;;;;;;4164181;28;20560;-72
2021/05/26 03:48:54;;;;;;;46.40;22.48;;;8.70;99.90;;;;;;4163755;28;20030;-72
2021/05/26 03:50:55;;;;;;;30.23;17.92;;;8.80;99.90;;;;;;4163980;28;20113;-72
2021/05/26 03:52:56;;;;;;;36.10;18.75;;;8.80;99.90;;;;;;4162728;28;20469;-72
2021/05/26 03:54:56;;;;;;;31.70;16.50;;;8.90;99.90;;;;;;4163721;28;20025;-72
2021/05/26 03:56:57;;;;;;;35.72;16.48;;;9.00;99.90;;;;;;4163845;28;20444;-72
2021/05/26 03:58:57;;;;;;;31.80;15.45;;;9.00;99.90;;;;;;4163503;28;20116;-72
2021/05/26 04:00:59;;;;;;;29.45;15.02;;;8.90;99.90;;;;;;4163946;28;20053;-72
2021/05/26 04:03:00;;;;;;;30.50;15.80;;;8.90;99.90;;;;;;4164080;28;20037;-72
2021/05/26 04:05:00;;;;;;;30.83;16.10;;;9.00;99.90;;;;;;4163734;28;20392;-72
2021/05/26 04:07:01;;;;;;;31.92;14.15;;;9.00;99.90;;;;;;4163649;28;20468;-72
2021/05/26 04:09:03;;;;;;;28.85;14.18;;;9.00;99.90;;;;;;4163486;28;20029;-72
2021/05/26 04:11:04;;;;;;;26.08;13.63;;;9.00;99.90;;;;;;4163311;28;20039;-72
2021/05/26 04:13:04;;;;;;;33.75;14.95;;;9.10;99.90;;;;;;4163662;28;20090;-72
2021/05/26 04:15:06;;;;;;;33.83;15.40;;;9.10;99.90;;;;;;4163613;28;20033;-72
2021/05/26 04:17:06;;;;;;;23.83;12.60;;;9.00;99.90;;;;;;4163584;28;20034;-72
2021/05/26 04:19:07;;;;;;;25.23;12.85;;;8.90;99.90;;;;;;4163255;28;20036;-72
2021/05/26 04:21:08;;;;;;;24.08;12.32;;;8.90;99.90;;;;;;4162209;28;20061;-72
2021/05/26 04:23:08;;;;;;;27.58;12.32;;;9.00;99.90;;;;;;4162034;28;20515;-72
2021/05/26 04:25:09;;;;;;;28.17;13.07;;;9.00;99.90;;;;;;4163543;28;20037;-72
2021/05/26 04:27:10;;;;;;;28.35;12.18;;;9.00;99.90;;;;;;4163691;28;20021;-72
2021/05/26 04:29:11;;;;;;;23.75;11.43;;;9.00;99.90;;;;;;4163390;28;20479;-72
2021/05/26 04:31:13;;;;;;;27.45;12.15;;;9.10;99.90;;;;;;4163118;28;20411;-72
2021/05/26 04:33:16;;;;;;;27.17;10.63;;;9.10;99.90;;;;;;4162003;28;20110;-72
2021/05/26 04:35:17;;;;;;;24.13;11.55;;;9.10;99.90;;;;;;4163190;28;20041;-72
2021/05/26 04:37:18;;;;;;;27.58;11.13;;;9.10;99.90;;;;;;4163170;28;20029;-72
2021/05/26 04:39:19;;;;;;;23.00;9.95;;;9.20;99.90;;;;;;4163152;28;20159;-72
2021/05/26 04:41:19;;;;;;;21.88;11.73;;;9.30;99.90;;;;;;4163269;28;20081;-72
2021/05/26 04:43:20;;;;;;;20.10;10.55;;;9.30;99.90;;;;;;4161931;28;20044;-72
2021/05/26 04:45:21;;;;;;;21.92;9.13;;;9.40;99.90;;;;;;4162751;28;20043;-72
2021/05/26 04:47:22;;;;;;;24.13;11.40;;;9.40;99.90;;;;;;4162772;28;20026;-72
2021/05/26 04:49:22;;;;;;;22.75;10.55;;;9.30;99.90;;;;;;4162981;28;20033;-72
2021/05/26 04:51:23;;;;;;;26.27;10.77;;;9.30;99.90;;;;;;4163140;28;20083;-72
2021/05/26 04:53:24;;;;;;;30.27;13.40;;;9.30;99.90;;;;;;4163013;28;20116;-72
2021/05/26 04:55:24;;;;;;;21.17;12.50;;;9.20;99.90;;;;;;4162558;28;20033;-72
2021/05/26 04:57:25;;;;;;;25.25;12.18;;;9.30;99.90;;;;;;4161887;28;20042;-72
2021/05/26 04:59:26;;;;;;;27.50;12.40;;;9.30;99.90;;;;;;4161324;28;20037;-72
2021/05/26 05:01:26;;;;;;;25.13;11.85;;;9.50;99.90;;;;;;4159751;28;20511;-72
2021/05/26 05:03:27;;;;;;;23.05;11.85;;;9.60;99.90;;;;;;4158641;28;20121;-72
2021/05/26 05:05:31;;;;;;;24.80;12.15;;;9.80;99.90;;;;;;4158737;28;20017;-72
2021/05/26 05:07:32;;;;;;;20.27;11.65;;;9.80;99.90;;;;;;4161127;28;20025;-72
2021/05/26 05:09:32;;;;;;;20.73;11.82;;;9.90;99.90;;;;;;4159184;28;20436;-72
2021/05/26 05:11:33;;;;;;;24.35;12.75;;;9.90;99.90;;;;;;4161942;28;20722;-72
2021/05/26 05:13:34;;;;;;;22.08;13.18;;;9.90;99.90;;;;;;4160738;28;20544;-72
2021/05/26 05:15:34;;;;;;;23.52;13.10;;;9.80;99.90;;;;;;4156468;28;20018;-72
2021/05/26 05:17:35;;;;;;;22.90;11.98;;;9.80;99.90;;;;;;4161785;28;20489;-72
2021/05/26 05:19:36;;;;;;;22.13;12.38;;;9.80;99.90;;;;;;4162119;28;20171;-72
2021/05/26 05:21:36;;;;;;;25.20;11.93;;;9.70;99.90;;;;;;4155257;28;20346;-72
2021/05/26 05:23:37;;;;;;;22.63;12.45;;;9.70;99.90;;;;;;4161273;28;20037;-72
2021/05/26 05:25:37;;;;;;;18.75;12.38;;;9.70;99.90;;;;;;4160614;28;20434;-73
2021/05/26 05:27:38;;;;;;;21.63;12.90;;;9.70;99.90;;;;;;4163466;28;20025;-72
2021/05/26 05:29:38;;;;;;;30.17;13.77;;;9.70;99.90;;;;;;4161748;28;20037;-72
2021/05/26 05:31:39;;;;;;;16.55;12.27;;;9.80;99.90;;;;;;4162108;28;20091;-73
2021/05/26 05:33:40;;;;;;;20.30;13.25;;;9.70;99.90;;;;;;4161231;28;20491;-73
2021/05/26 05:35:40;;;;;;;25.38;13.65;;;9.70;99.90;;;;;;4161292;28;20025;-73
2021/05/26 05:37:41;;;;;;;23.00;12.75;;;9.80;99.90;;;;;;4161121;28;20088;-73
2021/05/26 05:39:41;;;;;;;21.02;12.98;;;9.90;99.90;;;;;;4161685;28;20030;-73
2021/05/26 05:41:44;;;;;;;29.08;13.52;;;10.00;99.90;;;;;;4153987;28;20034;-74
2021/05/26 05:43:45;;;;;;;22.80;14.88;;;10.10;99.90;;;;;;4155952;28;20034;-73
2021/05/26 05:45:45;;;;;;;33.38;13.93;;;10.20;99.90;;;;;;4180428;28;20032;-74
2021/05/26 05:47:47;;;;;;;21.80;15.50;;;10.30;99.90;;;;;;4164451;28;20037;-73
2021/05/26 05:49:48;;;;;;;21.42;11.65;;;10.40;99.90;;;;;;4165274;28;20041;-73
2021/05/26 05:51:50;;;;;;;24.02;12.23;;;10.40;99.90;;;;;;4162114;28;20045;-74
2021/05/26 05:53:50;;;;;;;21.23;12.88;;;10.40;99.90;;;;;;4165653;28;20033;-73
2021/05/26 05:55:51;;;;;;;20.27;14.07;;;10.40;99.90;;;;;;4162502;28;20030;-73
2021/05/26 05:57:53;;;;;;;22.25;14.13;;;10.40;99.90;;;;;;4165665;28;20061;-73
2021/05/26 05:59:54;;;;;;;18.13;13.02;;;10.40;99.90;;;;;;4165513;28;20037;-71
2021/05/26 06:01:55;;;;;;;19.00;11.43;;;10.50;99.90;;;;;;4161996;28;20041;-73
2021/05/26 06:03:55;;;;;;;20.42;14.27;;;10.60;99.90;;;;;;4162573;28;20476;-73
2021/05/26 06:05:56;;;;;;;21.45;11.70;;;10.60;99.90;;;;;;4180485;28;20585;-73
2021/05/26 06:07:57;;;;;;;21.42;13.68;;;10.70;99.90;;;;;;4161985;28;20045;-73
2021/05/26 06:09:58;;;;;;;19.10;12.43;;;10.70;99.90;;;;;;4165422;28;20039;-73
2021/05/26 06:11:59;;;;;;;20.27;11.80;;;10.70;99.90;;;;;;4163824;28;20061;-73
2021/05/26 06:14:04;;;;;;;18.40;12.00;;;10.80;99.90;;;;;;4164638;28;20041;-73
2021/05/26 06:16:05;;;;;;;28.52;13.48;;;10.80;99.90;;;;;;4164868;28;20029;-73
2021/05/26 06:18:06;;;;;;;23.70;12.65;;;10.70;99.90;;;;;;4163897;28;20374;-73
2021/05/26 06:20:08;;;;;;;19.58;12.02;;;10.70;99.90;;;;;;4164866;28;20060;-73
2021/05/26 06:22:08;;;;;;;19.77;11.32;;;10.70;99.90;;;;;;4164662;28;20033;-73
2021/05/26 06:24:09;;;;;;;20.92;12.75;;;10.80;99.90;;;;;;4162343;28;20026;-73
2021/05/26 06:26:10;;;;;;;22.45;12.60;;;10.70;99.90;;;;;;4165005;28;20037;-74
2021/05/26 06:28:10;;;;;;;22.40;14.27;;;10.80;99.90;;;;;;4164857;28;20056;-73
2021/05/26 06:30:12;;;;;;;16.65;11.73;;;10.90;99.90;;;;;;4164924;28;20369;-73
2021/05/26 06:32:13;;;;;;;16.23;12.00;;;10.90;99.90;;;;;;4170097;28;20028;-73
2021/05/26 06:34:13;;;;;;;21.85;12.77;;;11.20;99.90;;;;;;4155397;28;20030;-73
2021/05/26 06:36:14;;;;;;;15.93;12.35;;;11.10;99.90;;;;;;4164625;28;20179;-73
2021/05/26 06:38:15;;;;;;;18.55;13.80;;;11.00;99.90;;;;;;4164959;28;20036;-73
2021/05/26 06:40:15;;;;;;;23.75;14.10;;;11.10;99.90;;;;;;4157123;28;20457;-73
2021/05/26 06:42:16;;;;;;;23.45;14.23;;;11.10;99.90;;;;;;4163978;28;20499;-73
2021/05/26 06:44:17;;;;;;;20.70;14.20;;;10.90;99.90;;;;;;4163580;28;20022;-73
2021/05/26 06:46:18;;;;;;;19.77;15.85;;;11.00;99.90;;;;;;4159162;28;20379;-74
2021/05/26 06:48:18;;;;;;;26.35;16.52;;;11.00;99.90;;;;;;4151561;28;20030;-73
2021/05/26 06:50:19;;;;;;;21.13;15.07;;;11.00;99.90;;;;;;4161601;28;20026;-73
2021/05/26 06:52:19;;;;;;;20.60;13.40;;;11.20;99.90;;;;;;4159797;28;20527;-73
2021/05/26 06:54:21;;;;;;;22.20;16.35;;;11.20;99.90;;;;;;4163286;28;20045;-72
2021/05/26 06:56:22;;;;;;;20.65;15.27;;;11.20;99.90;;;;;;4163164;28;20042;-73
2021/05/26 06:58:23;;;;;;;19.27;14.30;;;11.30;99.90;;;;;;4164264;28;20038;-73
2021/05/26 07:00:23;;;;;;;33.65;17.92;;;11.40;99.90;;;;;;4161605;28;20121;-73
2021/05/26 07:02:24;;;;;;;25.50;18.98;;;11.40;99.90;;;;;;4162653;28;20083;-73
2021/05/26 07:04:24;;;;;;;23.05;15.98;;;11.50;99.90;;;;;;4164535;28;20116;-73
2021/05/26 07:06:25;;;;;;;19.25;16.02;;;11.60;99.90;;;;;;4164255;28;20473;-73
2021/05/26 07:08:26;;;;;;;17.80;15.35;;;11.60;99.90;;;;;;4163447;28;20043;-72
2021/05/26 07:10:26;;;;;;;22.40;16.52;;;11.70;99.90;;;;;;4162169;28;20380;-72
2021/05/26 07:12:27;;;;;;;21.63;17.88;;;11.70;99.90;;;;;;4158792;28;20113;-73
2021/05/26 07:14:28;;;;;;;27.95;16.38;;;11.50;99.90;;;;;;4162824;28;20420;-73
2021/05/26 07:16:29;;;;;;;18.85;14.05;;;11.50;99.90;;;;;;4162674;28;20365;-73
2021/05/26 07:18:29;;;;;;;22.50;14.85;;;11.60;99.90;;;;;;4161764;28;20029;-73
2021/05/26 07:20:31;;;;;;;21.45;14.52;;;11.80;99.90;;;;;;4162146;28;20618;-72
2021/05/26 07:22:31;;;;;;;21.30;15.32;;;11.80;99.90;;;;;;4162246;28;20099;-73
2021/05/26 07:24:32;;;;;;;20.90;14.85;;;11.90;99.90;;;;;;4162134;28;20407;-73
2021/05/26 07:26:33;;;;;;;17.02;13.65;;;12.10;99.90;;;;;;4162109;28;20064;-72
2021/05/26 07:28:35;;;;;;;19.38;13.98;;;12.30;99.90;;;;;;4162121;28;20030;-73
2021/05/26 07:30:36;;;;;;;16.73;12.85;;;12.50;99.90;;;;;;4162283;28;20033;-72
2021/05/26 07:32:37;;;;;;;20.75;13.30;;;12.60;99.90;;;;;;4162209;28;20044;-72
2021/05/26 07:34:38;;;;;;;20.92;13.15;;;12.70;99.90;;;;;;4161367;28;20072;-72
2021/05/26 07:36:38;;;;;;;24.13;13.20;;;12.90;99.90;;;;;;4162562;28;20041;-72
2021/05/26 07:38:40;;;;;;;15.48;11.75;;;13.10;99.90;;;;;;4162294;28;20069;-73
2021/05/26 07:40:41;;;;;;;18.60;12.05;;;13.10;99.90;;;;;;4162322;28;20040;-72
2021/05/26 07:42:42;;;;;;;15.40;9.32;;;13.00;99.90;;;;;;4158476;28;20041;-72
2021/05/26 07:44:43;;;;;;;15.40;11.60;;;12.80;99.90;;;;;;4162625;28;20044;-72
2021/05/26 07:46:43;;;;;;;14.38;11.02;;;12.60;99.90;;;;;;4162564;28;20082;-72
2021/05/26 07:48:44;;;;;;;22.80;12.85;;;12.50;99.90;;;;;;4162603;28;20048;-72
2021/05/26 07:50:45;;;;;;;17.15;11.55;;;12.40;99.90;;;;;;4162735;28;20033;-72
2021/05/26 07:52:46;;;;;;;17.65;12.90;;;12.30;99.90;;;;;;4162793;28;20492;-72
2021/05/26 07:54:48;;;;;;;20.50;13.07;;;12.30;99.90;;;;;;4161773;28;20125;-72
2021/05/26 07:56:50;;;;;;;19.02;13.63;;;12.30;99.90;;;;;;4158272;28;20408;-72
2021/05/26 07:58:51;;;;;;;17.48;11.60;;;12.50;99.90;;;;;;4162912;28;20091;-72
2021/05/26 08:00:51;;;;;;;15.80;12.63;;;12.50;99.90;;;;;;4162647;28;20117;-72
2021/05/26 08:02:53;;;;;;;23.95;12.60;;;12.50;99.90;;;;;;4161970;28;20030;-72
2021/05/26 08:04:53;;;;;;;18.90;11.80;;;12.50;99.90;;;;;;4162899;28;20033;-72
2021/05/26 08:06:54;;;;;;;18.63;13.32;;;12.50;99.90;;;;;;4162402;28;20151;-72
2021/05/26 08:08:55;;;;;;;17.13;12.45;;;12.60;99.90;;;;;;4162608;28;20045;-72
2021/05/26 08:10:56;;;;;;;17.67;11.38;;;12.80;99.90;;;;;;4159625;28;20033;-72
2021/05/26 08:12:57;;;;;;;14.98;11.55;;;13.00;99.90;;;;;;4158462;28;20045;-72
2021/05/26 08:14:58;;;;;;;17.05;12.25;;;13.20;99.90;;;;;;4159521;28;20080;-72
2021/05/26 08:16:59;;;;;;;17.75;11.45;;;13.20;99.90;;;;;;4161349;28;20506;-72
2021/05/26 08:18:59;;;;;;;19.70;11.65;;;13.30;99.90;;;;;;4162426;28;20033;-72
2021/05/26 08:21:00;;;;;;;17.50;11.45;;;13.30;99.90;;;;;;4162047;28;20072;-72
2021/05/26 08:23:01;;;;;;;19.10;11.02;;;13.60;99.90;;;;;;4161819;28;20083;-72
2021/05/26 08:25:03;;;;;;;15.35;10.98;;;13.70;99.90;;;;;;4160858;28;20121;-73
2021/05/26 08:27:04;;;;;;;16.77;10.90;;;13.60;99.90;;;;;;4161337;28;20476;-72
2021/05/26 08:29:05;;;;;;;14.35;10.35;;;13.40;99.90;;;;;;4160728;28;20026;-72
2021/05/26 08:31:05;;;;;;;16.58;10.95;;;13.50;99.90;;;;;;4158005;28;20633;-72
2021/05/26 08:33:06;;;;;;;13.30;10.68;;;13.60;99.90;;;;;;4159250;28;20029;-72
2021/05/26 08:35:06;;;;;;;13.35;9.32;;;13.60;99.90;;;;;;4162004;28;20388;-72
2021/05/26 08:37:07;;;;;;;16.70;10.43;;;13.60;99.90;;;;;;4157575;28;20034;-73
2021/05/26 08:39:08;;;;;;;13.73;10.32;;;13.60;99.90;;;;;;4158175;28;20037;-71
2021/05/26 08:41:11;;;;;;;12.23;9.65;;;13.90;99.90;;;;;;4159132;28;20107;-72
2021/05/26 08:43:16;;;;;;;11.85;8.68;;;14.00;99.90;;;;;;4161973;28;20074;-72
2021/05/26 08:45:17;;;;;;;11.25;8.90;;;14.00;99.90;;;;;;4159621;28;20045;-72
2021/05/26 08:47:19;;;;;;;13.75;8.45;;;14.00;99.90;;;;;;4161477;28;20519;-72
2021/05/26 08:49:21;;;;;;;11.60;8.63;;;14.10;99.90;;;;;;4161929;28;20361;-71
2021/05/26 08:51:23;;;;;;;13.90;9.00;;;14.50;99.90;;;;;;4161640;28;20067;-72
2021/05/26 08:53:24;;;;;;;10.45;7.85;;;14.70;99.90;;;;;;4161314;28;20616;-72
2021/05/26 08:55:26;;;;;;;9.48;7.50;;;14.90;99.90;;;;;;4158903;28;20036;-72
2021/05/26 08:57:26;;;;;;;10.95;7.20;;;14.90;99.90;;;;;;4161095;28;20047;-72
2021/05/26 08:59:27;;;;;;;12.00;8.25;;;14.70;99.90;;;;;;4160961;28;20057;-72
2021/05/26 09:01:27;;;;;;;10.13;7.63;;;14.80;99.90;;;;;;4160147;28;20025;-71
2021/05/26 09:03:30;;;;;;;14.45;9.48;;;14.90;99.90;;;;;;4161112;28;20045;-72
2021/05/26 09:05:31;;;;;;;13.00;9.02;;;15.20;99.90;;;;;;4160530;28;20032;-71
2021/05/26 09:07:33;;;;;;;10.30;8.13;;;15.00;99.90;;;;;;4159912;28;20392;-72
2021/05/26 09:09:45;;;;;;;8.93;7.55;;;14.80;99.90;;;;;;4160433;28;20116;-72
2021/05/26 09:11:47;;;;;;;11.55;7.72;;;14.70;99.90;;;;;;4156368;28;20099;-72
2021/05/26 09:13:48;;;;;;;12.45;9.82;;;14.60;99.90;;;;;;4159852;28;20042;-72
2021/05/26 09:15:48;;;;;;;10.48;8.45;;;14.50;99.90;;;;;;4160399;28;20497;-72
2021/05/26 09:17:54;;;;;;;12.48;9.48;;;14.30;99.90;;;;;;4160019;28;20052;-72
2021/05/26 09:20:09;;;;;;;8.63;7.68;;;14.50;99.90;;;;;;4158260;28;20115;-72
2021/05/26 09:22:23;;;;;;;14.73;8.07;;;14.90;99.90;;;;;;4161231;28;20450;-72
2021/05/26 09:24:23;;;;;;;10.48;7.68;;;14.80;99.90;;;;;;4161450;28;20084;-72
2021/05/26 09:26:47;;;;;;;11.48;8.25;;;15.00;99.90;;;;;;4160074;28;20065;-71
2021/05/26 09:28:47;;;;;;;13.02;8.07;;;15.20;99.90;;;;;;4159888;28;20083;-72
2021/05/26 09:31:06;;;;;;;10.90;8.40;;;15.30;99.90;;;;;;4176368;28;20539;-72
2021/05/26 09:33:30;;;;;;;13.25;9.15;;;14.80;99.90;;;;;;4157219;28;20126;-71
2021/05/26 09:35:31;;;;;;;7.80;5.00;;;14.60;99.90;;;;;;4157867;28;20040;-72
2021/05/26 09:37:37;;;;;;;3.47;2.70;;;14.80;99.90;;;;;;4161476;28;20038;-72
2021/05/26 09:40:07;;;;;;;3.90;3.15;;;14.80;99.90;;;;;;4161329;28;20017;-71
2021/05/26 09:42:22;;;;;;;4.03;2.97;;;14.50;99.90;;;;;;4159599;28;20045;-72
2021/05/26 09:44:23;;;;;;;5.22;4.40;;;13.70;99.90;;;;;;4161573;28;20033;-72
2021/05/26 09:46:25;;;;;;;5.43;3.80;;;12.50;99.90;;;;;;4160898;28;20049;-71
2021/05/26 09:48:25;;;;;;;8.32;3.63;;;11.70;99.90;;;;;;4160834;28;20591;-71
2021/05/26 09:50:34;;;;;;;5.95;4.32;;;10.90;99.90;;;;;;4160646;28;20017;-71
2021/05/26 09:52:51;;;;;;;5.72;4.30;;;10.40;99.90;;;;;;4161473;28;20025;-71
2021/05/26 09:54:51;;;;;;;4.53;4.07;;;10.20;99.90;;;;;;4159519;28;20025;-71
2021/05/26 09:57:06;;;;;;;9.60;5.45;;;9.90;99.90;;;;;;4160694;28;20092;-71
2021/05/26 09:59:08;;;;;;;6.00;4.45;;;9.80;99.90;;;;;;4158673;28;20373;-71
2021/05/26 10:01:10;;;;;;;6.30;5.07;;;9.70;99.90;;;;;;4161146;28;20377;-71
2021/05/26 10:03:11;;;;;;;5.65;4.15;;;9.70;99.90;;;;;;4161017;28;20076;-71
2021/05/26 10:05:17;;;;;;;6.78;4.00;;;9.70;99.90;;;;;;4161924;28;20122;-70
2021/05/26 10:07:18;;;;;;;10.35;4.32;;;9.70;99.90;;;;;;4161056;28;20385;-71
2021/05/26 10:09:24;;;;;;;5.93;4.15;;;9.70;99.90;;;;;;4176006;28;20041;-71
2021/05/26 10:11:28;;;;;;;8.38;5.20;;;9.70;99.90;;;;;;4157190;28;20029;-71
2021/05/26 10:13:29;;;;;;;;;;;9.70;99.90;;;;;;4158568;28;20045;-71
2021/05/26 10:15:31;;;;;;;7.68;4.75;;;9.70;99.90;;;;;;4160782;28;20229;-70
2021/05/26 10:17:38;;;;;;;8.18;4.28;;;9.70;99.90;;;;;;4160878;28;20036;-71
2021/05/26 10:19:38;;;;;;;8.38;4.80;;;9.70;99.90;;;;;;4157294;28;20083;-71
2021/05/26 10:21:40;;;;;;;9.13;4.97;;;9.70;99.90;;;;;;4156385;28;20041;-71
2021/05/26 10:23:42;;;;;;;8.93;5.07;;;9.70;99.90;;;;;;4161316;28;20057;-71
2021/05/26 10:25:44;;;;;;;9.48;5.45;;;9.60;99.90;;;;;;4159816;28;20022;-72
2021/05/26 10:27:49;;;;;;;12.40;5.60;;;9.70;99.90;;;;;;4161654;28;20057;-72
2021/05/26 10:29:57;;;;;;;6.43;4.75;;;9.80;99.90;;;;;;4164500;28;20467;-71